createdAt,value
2018-08-31T00:01:58.824Z,13.10
2018-08-31T00:05:38.077Z,13.00
2018-08-31T00:09:16.942Z,13.19
2018-08-31T00:11:57.736Z,13.25
2018-08-31T00:14:27.623Z,13.36
2018-08-31T00:16:57.315Z,13.37
2018-08-31T00:19:27.028Z,13.27
2018-08-31T00:21:56.680Z,13.20
2018-08-31T00:24:37.394Z,13.29
2018-08-31T00:27:18.004Z,13.26
2018-08-31T00:29:58.632Z,13.15
2018-08-31T00:33:10.949Z,13.16
2018-08-31T00:37:55.460Z,13.18
2018-08-31T00:40:51.344Z,13.07
2018-08-31T00:43:30.245Z,13.01
2018-08-31T00:46:00.021Z,13.05
2018-08-31T00:48:29.704Z,13.00
2018-08-31T00:50:59.508Z,12.95
2018-08-31T00:53:29.184Z,12.97
2018-08-31T00:55:58.860Z,12.97
2018-08-31T00:58:28.579Z,12.98
2018-08-31T01:00:58.299Z,12.99
2018-08-31T01:03:27.980Z,12.94
2018-08-31T01:05:57.676Z,12.90
2018-08-31T01:08:27.440Z,12.89
2018-08-31T01:10:57.107Z,12.83
2018-08-31T01:13:26.891Z,12.62
2018-08-31T01:15:56.680Z,12.36
2018-08-31T01:18:26.340Z,12.54
2018-08-31T01:20:55.997Z,12.59
2018-08-31T01:23:25.681Z,12.64
2018-08-31T01:25:55.336Z,12.70
2018-08-31T01:28:25.060Z,12.75
2018-08-31T01:30:54.721Z,12.77
2018-08-31T01:33:24.384Z,12.78
2018-08-31T01:35:54.095Z,12.74
2018-08-31T01:38:23.843Z,12.71
2018-08-31T01:40:53.508Z,12.68
2018-08-31T01:43:23.228Z,12.46
2018-08-31T01:45:52.879Z,12.43
2018-08-31T01:48:22.542Z,12.39
2018-08-31T01:50:57.389Z,12.43
2018-08-31T01:53:29.071Z,12.55
2018-08-31T01:55:58.789Z,12.56
2018-08-31T01:58:28.440Z,12.53
2018-08-31T02:00:58.180Z,12.53
2018-08-31T02:03:27.835Z,12.53
2018-08-31T02:05:57.508Z,12.47
2018-08-31T02:08:27.213Z,12.44
2018-08-31T02:10:56.875Z,12.49
2018-08-31T02:13:26.621Z,12.51
2018-08-31T02:15:56.291Z,12.48
2018-08-31T02:18:25.968Z,12.53
2018-08-31T02:20:55.644Z,12.56
2018-08-31T02:23:25.354Z,12.57
2018-08-31T02:25:55.032Z,12.53
2018-08-31T02:28:24.812Z,12.53
2018-08-31T02:30:54.523Z,12.46
2018-08-31T02:33:24.239Z,12.46
2018-08-31T02:35:53.912Z,12.49
2018-08-31T02:38:23.621Z,12.48
2018-08-31T02:40:53.285Z,12.46
2018-08-31T02:43:23.076Z,12.52
2018-08-31T02:45:52.776Z,12.45
2018-08-31T02:48:22.436Z,12.48
2018-08-31T02:50:52.140Z,12.40
2018-08-31T02:53:21.808Z,12.31
2018-08-31T02:55:51.524Z,12.30
2018-08-31T02:58:21.192Z,12.27
2018-08-31T03:00:50.896Z,12.21
2018-08-31T03:03:20.572Z,12.21
2018-08-31T03:05:50.302Z,12.20
2018-08-31T03:08:20.182Z,12.23
2018-08-31T03:10:49.908Z,12.31
2018-08-31T03:13:19.636Z,12.25
2018-08-31T03:15:49.366Z,12.14
2018-08-31T03:18:19.055Z,12.10
2018-08-31T03:20:48.736Z,12.17
2018-08-31T03:23:18.440Z,12.22
2018-08-31T03:25:48.122Z,12.17
2018-08-31T03:28:17.781Z,12.20
2018-08-31T03:30:47.547Z,12.05
2018-08-31T03:33:17.227Z,12.02
2018-08-31T03:35:46.918Z,12.02
2018-08-31T03:38:16.644Z,12.03
2018-08-31T03:40:46.336Z,12.03
2018-08-31T03:43:16.008Z,12.03
2018-08-31T03:45:45.716Z,12.11
2018-08-31T03:48:15.385Z,12.13
2018-08-31T03:50:45.089Z,12.15
2018-08-31T03:53:14.753Z,12.12
2018-08-31T03:55:44.428Z,12.13
2018-08-31T03:58:14.111Z,12.06
2018-08-31T04:00:43.796Z,12.06
2018-08-31T04:03:14.686Z,11.96
2018-08-31T04:05:44.352Z,11.96
2018-08-31T04:08:14.036Z,11.86
2018-08-31T04:10:43.710Z,11.78
2018-08-31T04:13:13.432Z,11.73
2018-08-31T04:15:43.117Z,11.69
2018-08-31T04:18:12.873Z,11.79
2018-08-31T04:20:42.556Z,11.83
2018-08-31T04:23:12.304Z,11.80
2018-08-31T04:25:41.952Z,11.77
2018-08-31T04:28:11.640Z,11.75
2018-08-31T04:30:41.329Z,11.60
2018-08-31T04:33:11.021Z,11.56
2018-08-31T04:35:40.677Z,11.66
2018-08-31T04:38:10.380Z,11.62
2018-08-31T04:40:40.125Z,11.56
2018-08-31T04:43:09.830Z,11.63
2018-08-31T04:45:39.538Z,11.62
2018-08-31T04:48:09.256Z,11.69
2018-08-31T04:50:38.924Z,11.62
2018-08-31T04:53:08.614Z,11.65
2018-08-31T04:55:38.305Z,11.56
2018-08-31T04:58:08.024Z,11.70
2018-08-31T05:00:37.704Z,11.74
2018-08-31T05:03:07.400Z,11.79
2018-08-31T05:05:37.122Z,11.70
2018-08-31T05:08:06.855Z,11.84
2018-08-31T05:10:36.674Z,11.88
2018-08-31T05:13:06.525Z,11.91
2018-08-31T05:15:36.183Z,12.03
2018-08-31T05:18:05.844Z,12.02
2018-08-31T05:20:35.512Z,11.98
2018-08-31T05:23:05.276Z,11.98
2018-08-31T05:25:34.973Z,11.99
2018-08-31T05:28:04.652Z,12.02
2018-08-31T05:30:34.380Z,12.11
2018-08-31T05:33:04.054Z,12.25
2018-08-31T05:35:33.723Z,12.32
2018-08-31T05:38:03.411Z,12.35
2018-08-31T05:40:33.064Z,12.45
2018-08-31T05:43:02.716Z,12.51
2018-08-31T05:45:32.365Z,12.62
2018-08-31T05:48:02.064Z,12.70
2018-08-31T05:50:31.727Z,12.76
2018-08-31T05:53:01.403Z,12.85
2018-08-31T05:55:31.097Z,12.92
2018-08-31T05:58:00.784Z,13.02
2018-08-31T06:00:30.601Z,13.01
2018-08-31T06:03:00.326Z,13.05
2018-08-31T06:05:30.023Z,13.14
2018-08-31T06:07:59.692Z,13.18
2018-08-31T06:10:29.387Z,13.25
2018-08-31T06:12:59.165Z,13.17
2018-08-31T06:15:28.851Z,13.22
2018-08-31T06:17:58.519Z,13.29
2018-08-31T06:20:28.437Z,13.32
2018-08-31T06:22:58.152Z,13.35
2018-08-31T06:25:27.905Z,13.31
2018-08-31T06:27:57.592Z,13.34
2018-08-31T06:30:27.262Z,13.40
2018-08-31T06:32:57.047Z,13.40
2018-08-31T06:35:26.720Z,13.37
2018-08-31T06:37:56.398Z,13.46
2018-08-31T06:40:26.100Z,13.53
2018-08-31T06:42:55.772Z,13.56
2018-08-31T06:45:25.436Z,13.61
2018-08-31T06:47:55.128Z,13.65
2018-08-31T06:50:24.836Z,13.75
2018-08-31T06:52:54.525Z,13.87
2018-08-31T06:55:24.244Z,13.92
2018-08-31T06:57:53.908Z,13.90
2018-08-31T07:00:23.567Z,13.92
2018-08-31T07:02:53.265Z,14.02
2018-08-31T07:05:22.924Z,13.99
2018-08-31T07:07:52.684Z,13.97
2018-08-31T07:10:22.392Z,13.98
2018-08-31T07:12:52.083Z,14.09
2018-08-31T07:15:22.140Z,14.17
2018-08-31T07:17:51.812Z,14.22
2018-08-31T07:20:21.468Z,14.26
2018-08-31T07:22:51.136Z,14.28
2018-08-31T07:25:20.868Z,14.29
2018-08-31T07:27:50.543Z,14.28
2018-08-31T07:30:20.196Z,14.38
2018-08-31T07:32:49.924Z,14.41
2018-08-31T07:35:19.571Z,14.53
2018-08-31T07:37:49.272Z,14.57
2018-08-31T07:40:18.928Z,14.54
2018-08-31T07:42:48.645Z,14.60
2018-08-31T07:45:18.303Z,14.66
2018-08-31T07:47:47.992Z,14.66
2018-08-31T07:50:17.731Z,14.78
2018-08-31T07:52:47.396Z,14.76
2018-08-31T07:55:17.072Z,14.90
2018-08-31T07:57:46.727Z,14.94
2018-08-31T08:00:16.400Z,14.88
2018-08-31T08:02:46.124Z,14.98
2018-08-31T08:05:15.789Z,15.04
2018-08-31T08:07:45.436Z,15.14
2018-08-31T08:10:15.131Z,15.10
2018-08-31T08:12:44.798Z,15.11
2018-08-31T08:15:14.476Z,15.19
2018-08-31T08:17:44.136Z,15.30
2018-08-31T08:20:13.827Z,15.27
2018-08-31T08:22:43.472Z,15.30
2018-08-31T08:25:13.208Z,15.40
2018-08-31T08:27:42.921Z,15.43
2018-08-31T08:30:12.581Z,15.56
2018-08-31T08:32:42.260Z,15.62
2018-08-31T08:35:11.988Z,15.77
2018-08-31T08:37:41.849Z,15.82
2018-08-31T08:40:11.571Z,15.90
2018-08-31T08:42:41.285Z,15.97
2018-08-31T08:45:10.997Z,16.10
2018-08-31T08:47:40.677Z,16.19
2018-08-31T08:50:10.390Z,16.34
2018-08-31T08:52:40.113Z,16.41
2018-08-31T08:55:09.803Z,16.53
2018-08-31T08:57:39.514Z,16.72
2018-08-31T09:00:09.288Z,16.89
2018-08-31T09:02:38.989Z,17.10
2018-08-31T09:05:08.731Z,17.30
2018-08-31T09:07:38.412Z,17.73
2018-08-31T09:10:08.156Z,18.02
2018-08-31T09:12:37.796Z,18.28
2018-08-31T09:15:07.629Z,18.41
2018-08-31T09:17:37.394Z,18.69
2018-08-31T09:20:07.242Z,18.78
2018-08-31T09:22:37.223Z,18.81
2018-08-31T09:25:07.005Z,18.94
2018-08-31T09:27:36.714Z,18.75
2018-08-31T09:30:07.248Z,18.90
2018-08-31T09:32:37.009Z,19.22
2018-08-31T09:35:06.984Z,19.21
2018-08-31T09:37:36.679Z,19.01
2018-08-31T09:40:06.416Z,19.12
2018-08-31T09:42:36.129Z,19.05
2018-08-31T09:45:05.844Z,19.05
2018-08-31T09:47:35.640Z,19.23
2018-08-31T09:50:05.669Z,19.40
2018-08-31T09:52:35.364Z,19.69
2018-08-31T09:55:05.212Z,20.06
2018-08-31T09:57:35.083Z,20.13
2018-08-31T10:00:05.100Z,20.55
2018-08-31T10:02:40.176Z,20.59
2018-08-31T10:05:09.836Z,20.73
2018-08-31T10:07:39.520Z,20.86
2018-08-31T10:10:09.339Z,20.94
2018-08-31T10:12:39.112Z,20.88
2018-08-31T10:15:08.795Z,21.03
2018-08-31T10:17:38.541Z,21.21
2018-08-31T10:20:08.272Z,21.03
2018-08-31T10:22:37.948Z,21.43
2018-08-31T10:25:07.672Z,21.62
2018-08-31T10:27:37.348Z,21.77
2018-08-31T10:30:08.027Z,21.78
2018-08-31T10:32:37.736Z,21.71
2018-08-31T10:35:07.553Z,21.80
2018-08-31T10:37:37.249Z,21.89
2018-08-31T10:40:07.039Z,21.69
2018-08-31T10:42:36.721Z,21.54
2018-08-31T10:45:07.437Z,21.62
2018-08-31T10:47:37.360Z,21.83
2018-08-31T10:50:08.533Z,22.05
2018-08-31T10:52:38.233Z,22.44
2018-08-31T10:55:08.161Z,22.56
2018-08-31T10:57:38.064Z,21.97
2018-08-31T11:00:07.891Z,22.17
2018-08-31T11:02:37.660Z,22.46
2018-08-31T11:05:07.397Z,22.58
2018-08-31T11:07:37.076Z,22.37
2018-08-31T11:10:07.512Z,22.08
2018-08-31T11:12:37.359Z,21.96
2018-08-31T11:15:07.095Z,22.11
2018-08-31T11:17:36.784Z,22.16
2018-08-31T11:20:06.544Z,22.33
2018-08-31T11:22:36.292Z,22.21
2018-08-31T11:25:06.056Z,21.93
2018-08-31T11:27:35.837Z,21.71
2018-08-31T11:30:05.655Z,21.72
2018-08-31T11:32:35.664Z,22.03
2018-08-31T11:35:05.635Z,22.50
2018-08-31T11:37:35.319Z,22.43
2018-08-31T11:40:05.192Z,22.56
2018-08-31T11:42:34.856Z,22.83
2018-08-31T11:45:04.552Z,23.10
2018-08-31T11:47:34.240Z,23.02
2018-08-31T11:50:04.004Z,22.79
2018-08-31T11:52:33.669Z,23.04
2018-08-31T11:55:03.477Z,23.29
2018-08-31T11:57:33.177Z,23.51
2018-08-31T12:00:02.896Z,23.63
2018-08-31T12:02:32.608Z,23.90
2018-08-31T12:05:02.388Z,24.08
2018-08-31T12:07:32.066Z,24.37
2018-08-31T12:10:01.728Z,24.41
2018-08-31T12:12:31.465Z,24.23
2018-08-31T12:15:01.192Z,24.39
2018-08-31T12:17:30.896Z,24.55
2018-08-31T12:20:00.593Z,24.39
2018-08-31T12:22:30.297Z,24.24
2018-08-31T12:25:00.083Z,24.24
2018-08-31T12:27:29.802Z,24.15
2018-08-31T12:29:59.508Z,23.87
2018-08-31T12:32:29.227Z,23.56
2018-08-31T12:34:58.984Z,23.14
2018-08-31T12:37:28.724Z,22.86
2018-08-31T12:39:58.400Z,22.47
2018-08-31T12:42:28.140Z,22.22
2018-08-31T12:44:57.789Z,22.16
2018-08-31T12:47:27.464Z,22.20
2018-08-31T12:49:57.192Z,22.67
2018-08-31T12:52:26.992Z,23.02
2018-08-31T12:54:56.684Z,23.54
2018-08-31T12:57:26.433Z,23.87
2018-08-31T12:59:59.205Z,24.08
2018-08-31T13:02:30.425Z,23.96
2018-08-31T13:05:00.404Z,24.11
2018-08-31T13:07:30.139Z,24.07
2018-08-31T13:09:59.861Z,23.91
2018-08-31T13:12:29.555Z,23.55
2018-08-31T13:14:59.292Z,23.29
2018-08-31T13:17:28.964Z,22.99
2018-08-31T13:19:58.775Z,22.86
2018-08-31T13:22:28.441Z,22.69
2018-08-31T13:24:58.159Z,22.71
2018-08-31T13:27:27.951Z,22.75
2018-08-31T13:29:57.659Z,22.97
2018-08-31T13:32:27.316Z,23.28
2018-08-31T13:34:57.014Z,23.38
2018-08-31T13:37:26.747Z,23.38
2018-08-31T13:39:56.448Z,23.46
2018-08-31T13:42:26.253Z,23.54
2018-08-31T13:44:55.948Z,23.62
2018-08-31T13:47:25.724Z,23.92
2018-08-31T13:49:55.436Z,23.91
2018-08-31T13:52:25.120Z,23.73
2018-08-31T13:54:55.180Z,23.71
2018-08-31T13:57:24.896Z,23.68
2018-08-31T13:59:54.576Z,23.43
2018-08-31T14:02:24.364Z,23.30
2018-08-31T14:04:54.069Z,23.46
2018-08-31T14:07:23.753Z,23.65
2018-08-31T14:09:53.452Z,23.88
2018-08-31T14:12:23.210Z,24.13
2018-08-31T14:14:52.888Z,24.35
2018-08-31T14:17:22.600Z,24.38
2018-08-31T14:19:52.287Z,24.14
2018-08-31T14:22:21.969Z,23.98
2018-08-31T14:24:51.752Z,23.95
2018-08-31T14:27:21.408Z,23.64
2018-08-31T14:29:51.274Z,23.67
2018-08-31T14:32:20.812Z,23.63
2018-08-31T14:34:50.530Z,23.68
2018-08-31T14:37:20.228Z,23.65
2018-08-31T14:39:49.914Z,23.53
2018-08-31T14:42:19.604Z,23.41
2018-08-31T14:44:49.281Z,23.20
2018-08-31T14:47:19.001Z,23.06
2018-08-31T14:49:48.686Z,22.77
2018-08-31T14:52:18.439Z,22.59
2018-08-31T14:54:48.120Z,22.41
2018-08-31T14:57:17.796Z,22.31
2018-08-31T14:59:47.492Z,22.13
2018-08-31T15:02:17.203Z,22.29
2018-08-31T15:04:46.837Z,22.33
2018-08-31T15:07:16.540Z,22.33
2018-08-31T15:09:46.218Z,22.14
2018-08-31T15:12:15.855Z,21.89
2018-08-31T15:14:45.565Z,21.91
2018-08-31T15:17:15.260Z,21.87
2018-08-31T15:19:44.912Z,21.95
2018-08-31T15:22:14.618Z,21.88
2018-08-31T15:24:44.303Z,21.84
2018-08-31T15:27:13.964Z,21.89
2018-08-31T15:29:43.680Z,22.04
2018-08-31T15:32:13.332Z,22.11
2018-08-31T15:34:43.016Z,22.10
2018-08-31T15:37:12.942Z,22.00
2018-08-31T15:39:42.660Z,21.88
2018-08-31T15:42:12.403Z,21.76
2018-08-31T15:44:42.761Z,21.68
2018-08-31T15:47:12.436Z,21.66
2018-08-31T15:49:42.213Z,21.54
2018-08-31T15:52:11.829Z,21.45
2018-08-31T15:54:41.512Z,21.45
2018-08-31T15:57:11.216Z,21.26
2018-08-31T15:59:40.883Z,21.24
2018-08-31T16:02:10.584Z,21.27
2018-08-31T16:04:40.367Z,21.28
2018-08-31T16:07:10.042Z,21.23
2018-08-31T16:09:39.747Z,21.23
2018-08-31T16:12:09.557Z,21.22
2018-08-31T16:14:39.247Z,21.08
2018-08-31T16:17:08.957Z,21.02
2018-08-31T16:19:38.671Z,20.93
2018-08-31T16:22:08.461Z,20.99
2018-08-31T16:24:38.172Z,20.94
2018-08-31T16:27:07.890Z,20.74
2018-08-31T16:29:37.568Z,20.68
2018-08-31T16:32:07.393Z,20.57
2018-08-31T16:34:37.073Z,20.51
2018-08-31T16:37:06.820Z,20.45
2018-08-31T16:39:36.513Z,20.39
2018-08-31T16:42:06.323Z,20.29
2018-08-31T16:44:35.981Z,20.17
2018-08-31T16:47:05.892Z,20.02
2018-08-31T16:49:35.568Z,19.94
2018-08-31T16:52:05.292Z,19.92
2018-08-31T16:54:34.968Z,19.84
2018-08-31T16:57:04.698Z,19.77
2018-08-31T16:59:34.490Z,19.70
2018-08-31T17:02:04.282Z,19.69
2018-08-31T17:04:33.972Z,19.65
2018-08-31T17:07:03.664Z,19.66
2018-08-31T17:09:33.476Z,19.56
2018-08-31T17:12:03.153Z,19.51
2018-08-31T17:14:32.832Z,19.41
2018-08-31T17:17:02.878Z,19.29
2018-08-31T17:19:32.500Z,19.23
2018-08-31T17:22:02.242Z,19.23
2018-08-31T17:24:31.907Z,19.21
2018-08-31T17:27:06.784Z,19.12
2018-08-31T17:29:40.602Z,19.03
2018-08-31T17:32:15.536Z,18.99
2018-08-31T17:34:50.289Z,18.95
2018-08-31T17:37:25.155Z,18.88
2018-08-31T17:39:55.272Z,18.86
2018-08-31T17:42:25.372Z,18.74
2018-08-31T17:44:55.025Z,18.69
2018-08-31T17:47:24.753Z,18.64
2018-08-31T17:49:54.512Z,18.47
2018-08-31T17:52:24.197Z,18.46
2018-08-31T17:54:53.964Z,18.49
2018-08-31T17:57:23.652Z,18.38
2018-08-31T17:59:53.369Z,18.28
2018-08-31T18:02:23.048Z,18.17
2018-08-31T18:04:52.734Z,18.13
2018-08-31T18:07:22.459Z,18.15
2018-08-31T18:09:52.141Z,18.06
2018-08-31T18:12:21.924Z,18.03
2018-08-31T18:14:51.636Z,17.88
2018-08-31T18:17:21.314Z,17.82
2018-08-31T18:19:51.104Z,17.73
2018-08-31T18:22:20.789Z,17.61
2018-08-31T18:24:50.482Z,17.52
2018-08-31T18:27:20.608Z,17.37
2018-08-31T18:29:50.275Z,17.41
2018-08-31T18:32:19.972Z,17.44
2018-08-31T18:34:49.629Z,17.41
2018-08-31T18:37:19.353Z,17.35
2018-08-31T18:39:49.070Z,17.31
2018-08-31T18:42:18.800Z,17.21
2018-08-31T18:44:48.628Z,17.24
2018-08-31T18:47:18.368Z,17.23
2018-08-31T18:49:48.656Z,17.07
2018-08-31T18:52:18.457Z,16.90
2018-08-31T18:54:48.150Z,16.74
2018-08-31T18:57:17.816Z,16.81
2018-08-31T18:59:47.513Z,16.86
2018-08-31T19:02:17.463Z,16.84
2018-08-31T19:04:47.180Z,16.61
2018-08-31T19:07:16.877Z,16.64
2018-08-31T19:09:46.542Z,16.44
2018-08-31T19:12:16.276Z,16.43
2018-08-31T19:14:45.956Z,16.28
2018-08-31T19:17:15.616Z,16.02
2018-08-31T19:19:45.313Z,16.02
2018-08-31T19:22:15.020Z,15.93
2018-08-31T19:24:44.728Z,15.71
2018-08-31T19:27:14.424Z,15.51
2018-08-31T19:29:44.113Z,15.42
2018-08-31T19:32:13.784Z,15.49
2018-08-31T19:34:43.440Z,15.64
2018-08-31T19:37:13.200Z,15.68
2018-08-31T19:39:42.883Z,15.73
2018-08-31T19:42:12.547Z,15.83
2018-08-31T19:44:42.276Z,15.85
2018-08-31T19:47:11.961Z,15.86
2018-08-31T19:49:41.620Z,15.89
2018-08-31T19:52:11.422Z,15.83
2018-08-31T19:54:41.117Z,15.82
2018-08-31T19:57:10.817Z,15.86
2018-08-31T19:59:40.505Z,15.74
2018-08-31T20:02:10.240Z,15.71
2018-08-31T20:04:39.966Z,15.57
2018-08-31T20:07:09.688Z,15.50
2018-08-31T20:09:39.370Z,15.50
2018-08-31T20:12:09.048Z,15.53
2018-08-31T20:14:38.796Z,15.49
2018-08-31T20:17:08.540Z,15.35
2018-08-31T20:19:38.224Z,15.30
2018-08-31T20:22:10.864Z,15.34
2018-08-31T20:24:40.692Z,15.30
2018-08-31T20:27:10.403Z,15.22
2018-08-31T20:29:40.116Z,15.19
2018-08-31T20:32:09.860Z,15.17
2018-08-31T20:34:39.555Z,15.17
2018-08-31T20:37:09.236Z,15.04
2018-08-31T20:39:38.916Z,15.03
2018-08-31T20:42:08.597Z,14.92
2018-08-31T20:44:38.236Z,14.77
2018-08-31T20:47:07.985Z,14.69
2018-08-31T20:49:37.769Z,14.72
2018-08-31T20:52:07.500Z,14.80
2018-08-31T20:54:37.180Z,14.78
2018-08-31T20:57:06.892Z,14.85
2018-08-31T20:59:36.597Z,14.76
2018-08-31T21:02:06.407Z,14.72
2018-08-31T21:04:36.143Z,14.70
2018-08-31T21:07:06.031Z,14.67
2018-08-31T21:09:35.701Z,14.64
2018-08-31T21:12:05.460Z,14.62
2018-08-31T21:14:35.107Z,14.66
2018-08-31T21:17:04.804Z,14.61
2018-08-31T21:19:34.515Z,14.58
2018-08-31T21:22:04.200Z,14.55
2018-08-31T21:24:33.859Z,14.43
2018-08-31T21:27:03.569Z,14.38
2018-08-31T21:29:33.256Z,14.29
2018-08-31T21:32:02.949Z,14.32
2018-08-31T21:34:32.935Z,14.24
2018-08-31T21:37:02.585Z,14.33
2018-08-31T21:39:33.361Z,14.27
2018-08-31T21:42:03.073Z,14.24
2018-08-31T21:44:32.724Z,14.25
2018-08-31T21:47:03.020Z,14.32
2018-08-31T21:49:32.740Z,14.39
2018-08-31T21:52:02.436Z,14.33
2018-08-31T21:54:32.178Z,14.29
2018-08-31T21:57:01.871Z,14.34
2018-08-31T21:59:31.551Z,14.36
2018-08-31T22:02:01.300Z,14.29
2018-08-31T22:04:30.984Z,14.20
2018-08-31T22:07:00.668Z,14.15
2018-08-31T22:09:30.402Z,14.09
2018-08-31T22:12:00.068Z,14.06
2018-08-31T22:14:29.768Z,14.02
2018-08-31T22:16:59.491Z,13.97
2018-08-31T22:19:29.152Z,13.95
2018-08-31T22:21:58.865Z,13.90
2018-08-31T22:24:28.532Z,13.85
2018-08-31T22:26:58.286Z,13.71
2018-08-31T22:29:27.943Z,13.60
2018-08-31T22:31:57.605Z,13.55
2018-08-31T22:34:27.359Z,13.37
2018-08-31T22:36:56.979Z,13.34
2018-08-31T22:39:26.664Z,13.22
2018-08-31T22:41:56.404Z,13.09
2018-08-31T22:44:26.111Z,13.04
2018-08-31T22:46:55.784Z,12.95
2018-08-31T22:49:25.456Z,12.87
2018-08-31T22:51:55.119Z,12.80
2018-08-31T22:54:24.799Z,12.81
2018-08-31T22:56:54.444Z,12.86
2018-08-31T22:59:24.155Z,13.06
2018-08-31T23:01:53.821Z,13.24
2018-08-31T23:04:23.472Z,13.26
2018-08-31T23:06:53.188Z,13.30
2018-08-31T23:09:22.928Z,13.32
2018-08-31T23:11:52.652Z,13.29
2018-08-31T23:14:22.352Z,13.27
2018-08-31T23:16:52.051Z,13.24
2018-08-31T23:19:21.719Z,13.05
2018-08-31T23:21:51.418Z,13.08
2018-08-31T23:24:21.072Z,13.09
2018-08-31T23:26:50.715Z,13.00
2018-08-31T23:29:20.404Z,12.90
2018-08-31T23:31:50.039Z,12.87
2018-08-31T23:34:19.787Z,12.97
2018-08-31T23:36:49.468Z,12.92
2018-08-31T23:39:19.148Z,12.95
2018-08-31T23:41:48.856Z,12.98
2018-08-31T23:44:18.546Z,12.93
2018-08-31T23:46:48.380Z,12.94
2018-08-31T23:49:18.041Z,12.94
2018-08-31T23:51:47.728Z,12.92
2018-08-31T23:54:17.407Z,12.86
2018-08-31T23:56:47.170Z,12.72
2018-08-31T23:59:16.851Z,12.60
